Time;durP1;ratioP1;P1;durP2;ratioP2;P2;SDS_P1;SDS_P2;PMS_P1;PMS_P2;Temp;Humidity;BMP_temperature;BMP_pressure;BME280_temperature;BME280_humidity;BME280_pressure;Samples;Min_cycle;Max_cycle;Signal;HPM_P1;HPM_P2
2023/10/24 00:01:27;;;;;;;25.60;16.40;;;9.40;83.00;;;;;;5032993;28;20056;-63
2023/10/24 00:03:53;;;;;;;22.83;16.17;;;9.40;83.00;;;;;;5032166;28;20149;-63
2023/10/24 00:06:19;;;;;;;27.00;18.10;;;9.40;83.10;;;;;;5031175;28;20536;-63
2023/10/24 00:08:45;;;;;;;22.87;17.03;;;9.40;83.00;;;;;;5032012;28;20053;-63
2023/10/24 00:11:11;;;;;;;28.30;16.77;;;9.40;83.20;;;;;;5031595;28;20062;-63
2023/10/24 00:13:36;;;;;;;24.17;17.40;;;9.40;83.20;;;;;;5030986;28;20542;-63
2023/10/24 00:16:02;;;;;;;25.43;16.93;;;9.40;83.20;;;;;;5032449;28;20076;-63
2023/10/24 00:18:28;;;;;;;24.63;17.00;;;9.40;83.30;;;;;;5031753;28;20103;-64
2023/10/24 00:20:54;;;;;;;26.33;17.37;;;9.40;83.20;;;;;;5018117;28;20511;-63
2023/10/24 00:23:20;;;;;;;26.80;17.97;;;9.40;83.30;;;;;;5018873;28;20133;-63
2023/10/24 00:25:45;;;;;;;27.60;17.20;;;9.40;83.30;;;;;;5030719;28;20398;-63
2023/10/24 00:28:11;;;;;;;27.50;17.27;;;9.40;83.30;;;;;;5031729;28;20053;-63
2023/10/24 00:30:37;;;;;;;23.87;17.83;;;9.40;83.40;;;;;;5030884;28;20048;-64
2023/10/24 00:33:03;;;;;;;27.93;17.53;;;9.40;83.40;;;;;;5029959;28;20046;-63
2023/10/24 00:35:29;;;;;;;28.37;17.47;;;9.40;83.40;;;;;;5031540;28;20058;-63
2023/10/24 00:37:55;;;;;;;25.90;17.77;;;9.40;83.40;;;;;;5014445;28;20081;-63
2023/10/24 00:40:21;;;;;;;25.90;16.97;;;9.40;83.40;;;;;;5006266;28;20049;-64
2023/10/24 00:42:47;;;;;;;25.57;17.43;;;9.40;83.40;;;;;;5013309;28;20250;-63
2023/10/24 00:45:12;;;;;;;24.97;17.67;;;9.40;83.40;;;;;;5011666;28;20038;-63
2023/10/24 00:47:39;;;;;;;24.50;17.27;;;9.40;83.50;;;;;;5031514;28;20107;-63
2023/10/24 00:50:07;;;;;;;25.30;16.60;;;9.40;83.40;;;;;;5031695;28;20473;-64
2023/10/24 00:52:34;;;;;;;22.07;17.30;;;9.40;83.30;;;;;;5032858;28;20132;-63
2023/10/24 00:55:01;;;;;;;25.53;16.50;;;9.40;83.30;;;;;;5032173;28;20053;-63
2023/10/24 00:57:27;;;;;;;24.13;16.63;;;9.40;83.40;;;;;;5030515;28;20519;-64
2023/10/24 00:59:53;;;;;;;22.93;16.67;;;9.40;83.30;;;;;;5032386;28;20053;-63
2023/10/24 01:02:19;;;;;;;24.10;17.73;;;9.40;83.40;;;;;;5019956;28;20052;-63
2023/10/24 01:04:45;;;;;;;24.63;17.37;;;9.40;83.40;;;;;;5031843;28;20399;-63
2023/10/24 01:07:11;;;;;;;27.13;17.30;;;9.40;83.40;;;;;;5027114;28;20045;-63
2023/10/24 01:09:37;;;;;;;26.20;16.43;;;9.40;83.50;;;;;;5016524;28;20050;-63
2023/10/24 01:12:03;;;;;;;27.67;17.70;;;9.40;83.60;;;;;;5020050;28;20037;-63
2023/10/24 01:14:29;;;;;;;26.50;17.97;;;9.40;83.60;;;;;;5030946;28;20132;-64
2023/10/24 01:16:55;;;;;;;30.17;17.93;;;9.40;83.70;;;;;;5031365;28;20129;-64
2023/10/24 01:19:21;;;;;;;28.93;18.77;;;9.30;84.00;;;;;;5030897;28;20042;-63
2023/10/24 01:21:47;;;;;;;30.73;19.17;;;9.30;84.20;;;;;;5031312;28;20042;-64
2023/10/24 01:24:17;;;;;;;26.57;19.03;;;9.30;84.20;;;;;;5030552;28;20045;-63
2023/10/24 01:26:43;;;;;;;28.83;19.27;;;9.20;84.20;;;;;;5030751;28;20515;-63
2023/10/24 01:29:10;;;;;;;25.67;18.70;;;9.20;84.30;;;;;;5028786;28;20037;-63
2023/10/24 01:31:36;;;;;;;25.70;18.37;;;9.20;84.60;;;;;;5011727;28;20046;-64
2023/10/24 01:34:02;;;;;;;32.83;20.10;;;9.20;84.70;;;;;;5027742;28;20041;-64
2023/10/24 01:36:27;;;;;;;29.00;19.80;;;9.20;84.70;;;;;;5024294;28;20086;-63
2023/10/24 01:38:53;;;;;;;31.03;19.50;;;9.20;84.70;;;;;;5024575;28;20130;-63
2023/10/24 01:41:19;;;;;;;32.43;20.53;;;9.20;84.90;;;;;;5024408;28;20056;-64
2023/10/24 01:43:45;;;;;;;35.23;20.93;;;9.20;85.00;;;;;;5010084;28;20045;-63
2023/10/24 01:46:11;;;;;;;33.67;21.67;;;9.20;85.00;;;;;;5017450;28;20041;-63
2023/10/24 01:48:36;;;;;;;30.00;21.30;;;9.20;85.10;;;;;;5030624;28;20468;-63
2023/10/24 01:51:02;;;;;;;33.07;20.57;;;9.20;85.30;;;;;;5030387;28;20141;-63
2023/10/24 01:53:28;;;;;;;36.90;23.63;;;9.20;85.30;;;;;;5030823;28;20045;-63
2023/10/24 01:55:54;;;;;;;38.13;22.30;;;9.20;85.50;;;;;;5031372;28;20042;-64
2023/10/24 01:58:19;;;;;;;39.17;23.40;;;9.20;85.50;;;;;;5031360;28;20041;-63
2023/10/24 02:00:45;;;;;;;40.03;23.73;;;9.20;85.60;;;;;;5030962;28;20446;-63
2023/10/24 02:03:11;;;;;;;44.00;25.70;;;9.20;85.60;;;;;;5031440;28;20594;-63
2023/10/24 02:05:38;;;;;;;44.83;26.17;;;9.20;85.70;;;;;;5023261;28;20049;-63
2023/10/24 02:08:04;;;;;;;49.63;26.83;;;9.20;85.90;;;;;;5014623;28;20191;-64
2023/10/24 02:10:30;;;;;;;41.80;24.63;;;9.20;86.00;;;;;;5010963;28;20133;-63
2023/10/24 02:12:56;;;;;;;45.40;26.00;;;9.20;86.10;;;;;;5026395;28;20041;-63
2023/10/24 02:15:22;;;;;;;42.20;24.80;;;9.20;86.10;;;;;;5044976;28;20088;-63
2023/10/24 02:17:47;;;;;;;46.00;26.23;;;9.20;86.20;;;;;;5030053;28;20038;-63
2023/10/24 02:20:13;;;;;;;48.20;27.57;;;9.20;86.20;;;;;;5019762;28;20342;-63
2023/10/24 02:22:39;;;;;;;50.30;28.57;;;9.20;86.30;;;;;;5011863;28;20100;-63
2023/10/24 02:25:06;;;;;;;50.30;29.27;;;9.20;86.40;;;;;;5030315;28;20045;-63
2023/10/24 02:27:34;;;;;;;54.53;28.20;;;9.20;86.50;;;;;;5028418;28;20514;-64
2023/10/24 02:30:04;;;;;;;52.07;29.43;;;9.10;86.50;;;;;;5020506;28;20500;-64
2023/10/24 02:32:29;;;;;;;54.63;29.47;;;9.20;86.60;;;;;;5023590;28;20041;-63
2023/10/24 02:34:55;;;;;;;46.40;26.93;;;9.20;86.70;;;;;;5016777;28;20061;-63
2023/10/24 02:37:21;;;;;;;54.07;30.50;;;9.20;86.70;;;;;;5017455;28;20497;-63
2023/10/24 02:39:46;;;;;;;51.70;27.97;;;9.20;86.70;;;;;;5009569;28;20489;-63
2023/10/24 02:42:12;;;;;;;48.03;28.80;;;9.20;86.80;;;;;;5026303;28;20047;-63
2023/10/24 02:44:38;;;;;;;48.07;28.13;;;9.20;87.00;;;;;;5029595;28;20141;-63
2023/10/24 02:47:03;;;;;;;55.80;30.33;;;9.20;87.00;;;;;;5016316;28;20096;-64
2023/10/24 02:49:32;;;;;;;45.63;27.30;;;9.20;87.10;;;;;;5017046;28;20145;-63
2023/10/24 02:51:57;;;;;;;49.63;29.40;;;9.20;87.00;;;;;;5015660;28;20412;-63
2023/10/24 02:54:23;;;;;;;52.47;29.57;;;9.20;87.10;;;;;;5028717;28;20049;-64
2023/10/24 02:56:50;;;;;;;46.10;27.53;;;9.20;87.10;;;;;;5028551;28;20124;-64
2023/10/24 02:59:16;;;;;;;43.20;26.60;;;9.20;87.20;;;;;;5010524;28;20496;-64
2023/10/24 03:01:42;;;;;;;45.20;26.83;;;9.20;87.20;;;;;;5010452;28;20045;-64
2023/10/24 03:04:08;;;;;;;52.10;27.63;;;9.20;87.20;;;;;;5013540;28;20099;-64
2023/10/24 03:06:33;;;;;;;41.53;25.73;;;9.20;87.30;;;;;;5028765;28;20049;-64
2023/10/24 03:08:59;;;;;;;53.37;29.33;;;9.30;87.30;;;;;;5027616;28;20132;-64
2023/10/24 03:11:25;;;;;;;44.50;26.53;;;9.40;87.40;;;;;;5028381;28;20084;-64
2023/10/24 03:13:55;;;;;;;49.17;28.37;;;9.40;87.50;;;;;;5028547;28;20133;-64
2023/10/24 03:16:21;;;;;;;51.70;28.13;;;9.40;87.50;;;;;;5028516;28;20424;-64
2023/10/24 03:18:47;;;;;;;45.20;27.43;;;9.40;87.60;;;;;;5028471;28;20063;-65
2023/10/24 03:21:13;;;;;;;52.93;29.33;;;9.40;87.70;;;;;;5013061;28;20050;-64
2023/10/24 03:23:44;;;;;;;42.27;25.23;;;9.40;87.60;;;;;;5008921;28;20125;-64
2023/10/24 03:26:10;;;;;;;46.78;27.75;;;9.40;87.80;;;;;;5025742;28;20053;-64
2023/10/24 03:28:35;;;;;;;48.37;28.43;;;9.40;87.80;;;;;;5028814;28;20053;-64
2023/10/24 03:31:06;;;;;;;54.33;28.80;;;9.50;87.80;;;;;;5010923;28;20052;-64
2023/10/24 03:33:33;;;;;;;37.42;21.92;;;9.50;87.80;;;;;;5026805;28;20416;-64
2023/10/24 03:35:59;;;;;;;50.83;28.27;;;9.50;87.90;;;;;;5026694;28;20063;-64
2023/10/24 03:38:26;;;;;;;49.97;27.80;;;9.50;87.80;;;;;;5018884;28;20049;-64
2023/10/24 03:40:52;;;;;;;48.13;28.13;;;9.60;87.80;;;;;;5028404;28;20046;-64
2023/10/24 03:43:18;;;;;;;45.47;27.33;;;9.60;87.80;;;;;;5028899;28;20052;-64
2023/10/24 03:45:44;;;;;;;51.53;28.77;;;9.60;87.90;;;;;;5024407;28;20050;-65
2023/10/24 03:48:11;;;;;;;53.47;28.93;;;9.60;87.90;;;;;;5015988;28;20045;-64
2023/10/24 03:50:37;;;;;;;44.30;26.07;;;9.70;88.00;;;;;;5028064;28;20073;-65
2023/10/24 03:53:06;;;;;;;54.47;30.37;;;9.70;88.10;;;;;;5028195;28;20425;-64
2023/10/24 03:55:33;;;;;;;49.57;28.03;;;9.70;88.20;;;;;;5027849;28;20412;-64
2023/10/24 03:57:59;;;;;;;52.57;29.50;;;9.70;88.20;;;;;;5027358;28;20050;-64
2023/10/24 04:00:26;;;;;;;59.87;31.10;;;9.70;88.20;;;;;;5027938;28;20046;-64
2023/10/24 04:02:54;;;;;;;49.27;28.83;;;9.80;88.30;;;;;;5029339;28;20054;-64
2023/10/24 04:05:20;;;;;;;51.10;30.70;;;9.80;88.30;;;;;;5029162;28;20041;-64
2023/10/24 04:07:46;;;;;;;57.60;32.67;;;9.80;88.40;;;;;;5029240;28;20512;-63
2023/10/24 04:10:12;;;;;;;53.47;32.00;;;9.80;88.40;;;;;;5029719;28;20068;-64
2023/10/24 04:12:39;;;;;;;54.50;31.17;;;9.80;88.40;;;;;;5028401;28;20563;-64
2023/10/24 04:15:06;;;;;;;51.23;30.93;;;9.90;88.40;;;;;;5028034;28;20412;-64
2023/10/24 04:17:35;;;;;;;54.40;32.53;;;9.90;88.40;;;;;;5029658;28;20041;-64
2023/10/24 04:20:01;;;;;;;62.93;33.27;;;9.90;88.40;;;;;;5022998;28;20459;-64
2023/10/24 04:22:27;;;;;;;49.30;32.03;;;10.00;88.40;;;;;;5021232;28;20064;-64
2023/10/24 04:24:53;;;;;;;55.73;31.67;;;9.90;88.50;;;;;;5027667;28;20144;-64
2023/10/24 04:27:19;;;;;;;50.20;31.73;;;10.00;88.40;;;;;;5028668;28;20128;-64
2023/10/24 04:29:46;;;;;;;89.77;41.03;;;10.00;88.50;;;;;;5027536;28;20092;-64
2023/10/24 04:32:12;;;;;;;69.87;37.30;;;10.00;88.40;;;;;;5029930;28;20056;-64
2023/10/24 04:34:38;;;;;;;64.73;35.50;;;10.00;88.40;;;;;;5028598;28;20038;-64
2023/10/24 04:37:04;;;;;;;57.43;35.27;;;10.00;88.40;;;;;;5021514;28;20057;-64
2023/10/24 04:39:30;;;;;;;62.43;36.63;;;10.00;88.40;;;;;;5012528;28;20053;-64
2023/10/24 04:41:56;;;;;;;55.47;33.00;;;10.00;88.40;;;;;;5025712;28;20396;-64
2023/10/24 04:44:22;;;;;;;58.17;33.47;;;10.00;88.50;;;;;;5031519;28;20448;-64
2023/10/24 04:46:47;;;;;;;63.83;34.83;;;10.00;88.50;;;;;;5031086;28;20106;-64
2023/10/24 04:49:15;;;;;;;66.60;34.77;;;10.00;88.50;;;;;;5031864;28;20045;-64
2023/10/24 04:51:42;;;;;;;79.37;37.30;;;10.00;88.50;;;;;;5031821;28;20496;-64
2023/10/24 04:54:08;;;;;;;82.47;37.77;;;10.00;88.50;;;;;;5032088;28;20052;-63
2023/10/24 04:56:34;;;;;;;72.37;36.17;;;10.10;88.60;;;;;;5027009;28;20053;-63
2023/10/24 04:59:00;;;;;;;92.17;39.40;;;10.00;88.50;;;;;;5030367;28;20045;-63
2023/10/24 05:01:25;;;;;;;76.83;36.23;;;10.10;88.50;;;;;;5032363;28;20056;-63
2023/10/24 05:03:51;;;;;;;91.40;39.43;;;10.10;88.50;;;;;;5031779;28;20041;-64
2023/10/24 05:06:17;;;;;;;83.93;37.07;;;10.10;88.60;;;;;;5030946;28;20147;-64
2023/10/24 05:08:42;;;;;;;71.60;36.63;;;10.10;88.50;;;;;;5018135;28;20096;-63
2023/10/24 05:11:08;;;;;;;87.33;38.73;;;10.10;88.60;;;;;;5021519;28;20071;-64
2023/10/24 05:13:34;;;;;;;87.57;39.60;;;10.10;88.60;;;;;;5028623;28;20420;-64
2023/10/24 05:15:59;;;;;;;91.13;39.77;;;10.10;88.60;;;;;;5027977;28;20088;-63
2023/10/24 05:18:25;;;;;;;95.17;41.37;;;10.10;88.70;;;;;;5029049;28;20053;-64
2023/10/24 05:20:50;;;;;;;69.00;37.13;;;10.10;88.60;;;;;;5029161;28;20053;-64
2023/10/24 05:23:16;;;;;;;79.73;39.53;;;10.20;88.70;;;;;;5028774;28;20084;-63
2023/10/24 05:25:42;;;;;;;55.30;33.63;;;10.20;88.70;;;;;;5028476;28;20049;-64
2023/10/24 05:28:08;;;;;;;65.13;36.93;;;10.20;88.90;;;;;;5028520;28;20110;-64
2023/10/24 05:30:38;;;;;;;58.30;36.00;;;10.20;88.90;;;;;;5030980;28;20123;-63
2023/10/24 05:33:05;;;;;;;59.00;36.63;;;10.30;88.90;;;;;;5035523;28;20126;-63
2023/10/24 05:35:32;;;;;;;50.97;34.43;;;10.30;89.00;;;;;;5039192;28;20515;-63
2023/10/24 05:37:58;;;;;;;55.47;35.13;;;10.30;88.90;;;;;;5029736;28;20044;-64
2023/10/24 05:40:24;;;;;;;79.33;40.97;;;10.30;88.90;;;;;;5030362;28;20049;-64
2023/10/24 05:42:50;;;;;;;56.50;35.93;;;10.30;88.90;;;;;;5012796;28;20562;-64
2023/10/24 05:45:16;;;;;;;60.50;37.33;;;10.30;88.80;;;;;;5028349;28;20061;-63
2023/10/24 05:47:42;;;;;;;75.72;39.90;;;10.30;88.80;;;;;;5011406;28;20050;-64
2023/10/24 05:50:08;;;;;;;62.60;38.20;;;10.30;88.70;;;;;;5020381;28;20042;-64
2023/10/24 05:52:34;;;;;;;58.63;35.93;;;10.40;88.70;;;;;;5026303;28;20049;-63
2023/10/24 05:55:00;;;;;;;56.53;35.63;;;10.40;88.70;;;;;;5023428;28;20421;-64
2023/10/24 05:57:25;;;;;;;86.30;41.73;;;10.40;88.70;;;;;;5028557;28;20125;-63
2023/10/24 05:59:51;;;;;;;61.13;36.87;;;10.40;88.60;;;;;;5030143;28;20049;-64
2023/10/24 06:02:17;;;;;;;50.77;34.53;;;10.40;88.60;;;;;;5029464;28;20053;-63
2023/10/24 06:04:42;;;;;;;61.65;36.90;;;10.40;88.60;;;;;;5029551;28;20481;-64
2023/10/24 06:07:08;;;;;;;59.47;37.43;;;10.30;88.50;;;;;;5018830;28;20539;-64
2023/10/24 06:09:34;;;;;;;58.22;38.63;;;10.40;88.50;;;;;;5021133;28;20049;-64
2023/10/24 06:11:59;;;;;;;49.08;33.83;;;10.30;88.50;;;;;;5026739;28;20570;-64
2023/10/24 06:14:25;;;;;;;54.13;34.42;;;10.30;88.50;;;;;;5027414;28;20060;-64
2023/10/24 06:16:51;;;;;;;54.37;34.90;;;10.30;88.50;;;;;;5009914;28;20507;-64
2023/10/24 06:19:17;;;;;;;56.78;35.70;;;10.30;88.40;;;;;;5020705;28;20801;-64
2023/10/24 06:21:42;;;;;;;46.80;32.97;;;10.30;88.50;;;;;;5027584;28;20045;-64
2023/10/24 06:24:08;;;;;;;46.85;32.25;;;10.30;88.40;;;;;;5027881;28;20130;-64
2023/10/24 06:26:34;;;;;;;54.83;34.13;;;10.30;88.40;;;;;;5027603;28;20045;-64
2023/10/24 06:28:59;;;;;;;44.90;31.77;;;10.40;88.40;;;;;;5026421;28;20145;-64
2023/10/24 06:31:28;;;;;;;52.15;32.58;;;10.40;88.40;;;;;;5028758;28;20508;-63
2023/10/24 06:33:54;;;;;;;48.42;32.25;;;10.40;88.40;;;;;;5027185;28;20103;-63
2023/10/24 06:36:21;;;;;;;49.55;31.95;;;10.40;88.40;;;;;;5028865;28;20053;-64
2023/10/24 06:38:46;;;;;;;45.42;30.50;;;10.40;88.40;;;;;;5020003;28;20045;-64
2023/10/24 06:41:13;;;;;;;58.63;35.08;;;10.40;88.40;;;;;;5025500;28;20107;-63
2023/10/24 06:43:39;;;;;;;41.83;28.93;;;10.40;88.40;;;;;;5026066;28;20512;-64
2023/10/24 06:46:05;;;;;;;38.70;27.63;;;10.40;88.30;;;;;;5019433;28;20127;-64
2023/10/24 06:48:32;;;;;;;36.30;28.33;;;10.40;88.30;;;;;;5020748;28;20049;-64
2023/10/24 06:50:58;;;;;;;30.03;24.10;;;10.40;88.30;;;;;;5023958;28;20171;-64
2023/10/24 06:53:24;;;;;;;30.53;23.63;;;10.50;88.30;;;;;;5021838;28;20053;-64
2023/10/24 06:55:50;;;;;;;34.92;24.52;;;10.50;88.20;;;;;;5025671;28;20053;-64
2023/10/24 06:58:16;;;;;;;30.45;22.17;;;10.50;88.20;;;;;;5027398;28;20049;-64
2023/10/24 07:00:43;;;;;;;25.53;20.17;;;10.50;88.00;;;;;;5025217;28;20057;-64
2023/10/24 07:03:09;;;;;;;24.90;18.83;;;10.50;88.00;;;;;;5026203;28;20089;-64
2023/10/24 07:05:34;;;;;;;28.70;20.88;;;10.50;87.90;;;;;;5025127;28;20134;-64
2023/10/24 07:08:00;;;;;;;29.27;20.77;;;10.50;87.90;;;;;;5025601;28;20042;-64
2023/10/24 07:10:26;;;;;;;30.00;20.37;;;10.50;87.90;;;;;;5024771;28;20790;-64
2023/10/24 07:12:51;;;;;;;27.17;19.90;;;10.50;87.80;;;;;;5025691;28;20069;-64
2023/10/24 07:15:17;;;;;;;26.02;20.10;;;10.50;87.80;;;;;;5010496;28;20057;-64
2023/10/24 07:17:43;;;;;;;23.48;19.13;;;10.50;87.70;;;;;;5024354;28;20083;-64
2023/10/24 07:20:09;;;;;;;29.63;20.93;;;10.50;87.70;;;;;;5018664;28;20046;-64
2023/10/24 07:22:35;;;;;;;26.93;18.67;;;10.50;87.70;;;;;;5023742;28;20045;-65
2023/10/24 07:25:01;;;;;;;24.95;18.27;;;10.50;87.70;;;;;;5026235;28;20772;-64
2023/10/24 07:27:26;;;;;;;25.80;18.60;;;10.50;87.60;;;;;;5026907;28;20053;-64
2023/10/24 07:29:52;;;;;;;23.73;18.63;;;10.50;87.60;;;;;;5025666;28;20041;-64
2023/10/24 07:32:18;;;;;;;25.27;18.40;;;10.50;87.60;;;;;;5024584;28;20118;-64
2023/10/24 07:34:43;;;;;;;28.80;18.90;;;10.40;87.60;;;;;;5024405;28;20073;-64
2023/10/24 07:37:09;;;;;;;25.33;18.97;;;10.40;87.70;;;;;;5025309;28;20120;-64
2023/10/24 07:39:36;;;;;;;30.30;20.53;;;10.40;87.60;;;;;;5025647;28;20489;-64
2023/10/24 07:42:02;;;;;;;27.73;19.70;;;10.40;87.60;;;;;;5024508;28;20053;-64
2023/10/24 07:44:28;;;;;;;27.40;20.13;;;10.40;87.80;;;;;;5023694;28;20081;-64
2023/10/24 07:46:53;;;;;;;37.03;23.98;;;10.40;87.70;;;;;;5016185;28;20519;-64
2023/10/24 07:49:19;;;;;;;31.75;21.48;;;10.40;87.80;;;;;;5025641;28;20053;-65
2023/10/24 07:51:45;;;;;;;30.50;20.35;;;10.40;87.70;;;;;;5018889;28;20500;-64
2023/10/24 07:54:13;;;;;;;27.17;18.73;;;10.40;87.70;;;;;;5022433;28;20055;-64
2023/10/24 07:56:40;;;;;;;30.48;19.52;;;10.40;87.60;;;;;;5021066;28;20049;-64
2023/10/24 07:59:07;;;;;;;29.98;20.33;;;10.40;87.70;;;;;;5014899;28;20081;-64
2023/10/24 08:01:33;;;;;;;32.22;20.08;;;10.40;87.60;;;;;;5019986;28;20049;-64
2023/10/24 08:03:59;;;;;;;30.47;20.03;;;10.40;87.70;;;;;;5013991;28;20053;-64
2023/10/24 08:06:25;;;;;;;32.80;21.37;;;10.40;87.70;;;;;;5020458;28;20056;-64
2023/10/24 08:08:51;;;;;;;30.05;20.63;;;10.40;87.70;;;;;;5021474;28;20042;-64
2023/10/24 08:11:17;;;;;;;29.87;19.73;;;10.40;87.70;;;;;;5022019;28;20058;-64
2023/10/24 08:13:42;;;;;;;30.52;20.55;;;10.40;87.70;;;;;;5027175;28;20444;-64
2023/10/24 08:16:08;;;;;;;26.23;19.43;;;10.40;87.60;;;;;;5029479;28;20053;-64
2023/10/24 08:18:34;;;;;;;29.07;19.57;;;10.40;87.60;;;;;;5028794;28;20233;-64
2023/10/24 08:21:00;;;;;;;24.70;17.45;;;10.40;87.60;;;;;;5021402;28;20511;-64
2023/10/24 08:23:28;;;;;;;29.20;19.00;;;10.40;87.60;;;;;;5029256;28;20049;-64
2023/10/24 08:25:54;;;;;;;27.10;18.17;;;10.40;87.70;;;;;;5029095;28;20057;-64
2023/10/24 08:28:20;;;;;;;28.15;19.25;;;10.40;87.50;;;;;;5029355;28;20045;-64
2023/10/24 08:30:46;;;;;;;30.37;19.47;;;10.40;87.50;;;;;;5026216;28;20045;-64
2023/10/24 08:33:11;;;;;;;29.43;19.40;;;10.40;87.60;;;;;;5034763;28;20335;-64
2023/10/24 08:35:37;;;;;;;28.63;18.45;;;10.50;87.60;;;;;;5030532;28;20091;-64
2023/10/24 08:38:03;;;;;;;27.15;18.90;;;10.50;87.50;;;;;;5022769;28;20080;-64
2023/10/24 08:40:30;;;;;;;26.52;19.05;;;10.50;87.40;;;;;;5041134;28;20060;-64
2023/10/24 08:42:56;;;;;;;34.77;20.50;;;10.50;87.40;;;;;;5024281;28;20095;-64
2023/10/24 08:45:24;;;;;;;32.22;20.85;;;10.50;87.30;;;;;;5028934;28;20050;-64
2023/10/24 08:47:53;;;;;;;29.92;19.88;;;10.50;87.30;;;;;;5013363;28;20057;-64
2023/10/24 08:50:18;;;;;;;28.40;20.48;;;10.50;87.20;;;;;;5026302;28;20068;-64
2023/10/24 08:52:45;;;;;;;31.33;20.88;;;10.50;87.20;;;;;;5012085;28;20038;-64
2023/10/24 08:55:11;;;;;;;33.63;21.80;;;10.50;87.20;;;;;;5017843;28;20052;-64
2023/10/24 08:57:42;;;;;;;31.60;22.05;;;10.50;87.10;;;;;;5021055;28;20050;-64
2023/10/24 09:00:12;;;;;;;31.50;21.77;;;10.50;87.10;;;;;;5019642;28;20052;-64
2023/10/24 09:02:40;;;;;;;29.00;20.58;;;10.50;87.00;;;;;;5020070;28;20069;-64
2023/10/24 09:05:08;;;;;;;33.22;21.83;;;10.50;87.00;;;;;;5025028;28;20704;-64
2023/10/24 09:07:34;;;;;;;30.23;20.73;;;10.50;87.00;;;;;;5026730;28;20733;-64
2023/10/24 09:10:00;;;;;;;28.60;19.75;;;10.50;87.00;;;;;;5024822;28;20057;-64
2023/10/24 09:12:28;;;;;;;29.63;21.40;;;10.50;87.00;;;;;;5023092;28;20508;-64
2023/10/24 09:14:54;;;;;;;30.70;20.35;;;10.50;87.00;;;;;;5019947;28;20500;-64
2023/10/24 09:17:22;;;;;;;36.80;22.02;;;10.50;86.90;;;;;;5022641;28;20057;-64
2023/10/24 09:19:48;;;;;;;33.97;22.08;;;10.50;87.00;;;;;;5022198;28;20124;-64
2023/10/24 09:22:17;;;;;;;30.67;22.00;;;10.50;87.00;;;;;;5025009;28;20120;-64
2023/10/24 09:24:45;;;;;;;33.40;22.00;;;10.50;87.10;;;;;;5015410;28;20045;-64
2023/10/24 09:27:12;;;;;;;33.20;20.77;;;10.50;87.10;;;;;;5021449;28;20049;-64
2023/10/24 09:29:38;;;;;;;30.40;20.88;;;10.50;87.10;;;;;;5019960;28;20041;-65
2023/10/24 09:32:04;;;;;;;33.15;20.85;;;10.50;87.00;;;;;;5025234;28;20716;-64
2023/10/24 09:34:31;;;;;;;29.77;21.00;;;10.50;86.90;;;;;;5021321;28;20053;-64
2023/10/24 09:37:07;;;;;;;30.27;21.10;;;10.50;87.10;;;;;;5021580;28;20106;-64
2023/10/24 09:39:49;;;;;;;33.58;22.23;;;10.50;87.00;;;;;;5022262;28;20050;-65
2023/10/24 09:42:21;;;;;;;35.58;22.35;;;10.50;87.00;;;;;;5019384;28;20083;-64
2023/10/24 09:44:48;;;;;;;37.63;22.35;;;10.50;86.90;;;;;;5025635;28;20049;-65
2023/10/24 09:47:14;;;;;;;31.23;21.95;;;10.50;86.90;;;;;;5015931;28;20041;-64
2023/10/24 09:49:42;;;;;;;32.05;21.63;;;10.40;86.90;;;;;;5016102;28;20049;-64
2023/10/24 09:52:08;;;;;;;29.13;20.35;;;10.40;86.90;;;;;;5024839;28;20487;-64
2023/10/24 09:54:37;;;;;;;26.27;20.33;;;10.50;86.90;;;;;;5026842;28;20122;-65
2023/10/24 09:57:03;;;;;;;29.60;21.48;;;10.40;86.90;;;;;;5022320;28;20084;-64
2023/10/24 09:59:29;;;;;;;32.55;22.25;;;10.40;86.80;;;;;;5027848;28;20476;-64
2023/10/24 10:01:56;;;;;;;31.52;21.55;;;10.40;86.70;;;;;;5026663;28;20136;-65
2023/10/24 10:04:22;;;;;;;29.27;20.95;;;10.40;86.60;;;;;;5027008;28;20049;-64
2023/10/24 10:06:48;;;;;;;33.00;22.00;;;10.40;86.50;;;;;;5026748;28;20049;-65
2023/10/24 10:09:15;;;;;;;29.40;20.93;;;10.40;86.60;;;;;;5020356;28;20049;-64
2023/10/24 10:11:43;;;;;;;28.93;21.73;;;10.40;86.50;;;;;;5026409;28;20236;-64
2023/10/24 10:14:22;;;;;;;29.67;22.07;;;10.40;86.40;;;;;;5028222;28;20069;-64
2023/10/24 10:17:09;;;;;;;32.25;21.13;;;10.40;86.50;;;;;;5026580;28;20084;-64
2023/10/24 10:20:10;;;;;;;28.42;20.90;;;10.50;86.40;;;;;;5019477;28;20050;-64
2023/10/24 10:23:00;;;;;;;31.00;21.73;;;10.50;86.40;;;;;;5022508;28;20500;-64
2023/10/24 10:25:49;;;;;;;32.50;23.27;;;10.50;86.40;;;;;;5027674;28;20071;-64
2023/10/24 10:28:32;;;;;;;28.95;21.50;;;10.50;86.20;;;;;;5027436;28;20442;-64
2023/10/24 10:31:09;;;;;;;30.42;21.42;;;10.50;86.20;;;;;;5026130;28;20060;-64
2023/10/24 10:33:35;;;;;;;28.00;20.55;;;10.50;86.20;;;;;;5031728;28;20053;-64
2023/10/24 10:36:02;;;;;;;33.17;21.30;;;10.50;86.00;;;;;;5028051;28;20053;-64
2023/10/24 10:38:43;;;;;;;29.17;20.55;;;10.50;85.90;;;;;;5027205;28;20064;-64
2023/10/24 10:41:28;;;;;;;28.38;21.20;;;10.50;86.00;;;;;;5021102;28;20061;-64
2023/10/24 10:43:59;;;;;;;30.95;21.40;;;10.50;85.90;;;;;;5026785;28;20053;-64
2023/10/24 10:46:26;;;;;;;28.80;21.45;;;10.50;85.90;;;;;;5018561;28;20085;-64
2023/10/24 10:49:03;;;;;;;32.25;25.08;;;10.50;85.90;;;;;;5026334;28;20083;-64
2023/10/24 10:51:36;;;;;;;29.05;20.10;;;10.50;86.00;;;;;;5026808;28;20049;-64
2023/10/24 10:54:11;;;;;;;25.50;19.80;;;10.50;85.90;;;;;;5027160;28;20049;-64
2023/10/24 10:56:39;;;;;;;28.73;20.63;;;10.50;85.90;;;;;;5024845;28;20480;-64
2023/10/24 10:59:08;;;;;;;25.97;20.37;;;10.50;85.90;;;;;;5026026;28;20045;-65
2023/10/24 11:01:45;;;;;;;32.88;21.67;;;10.50;85.90;;;;;;5025784;28;20586;-64
2023/10/24 11:04:17;;;;;;;28.02;20.58;;;10.50;86.10;;;;;;5026215;28;20052;-64
2023/10/24 11:07:09;;;;;;;31.15;22.13;;;10.60;86.00;;;;;;5026625;28;20049;-64
2023/10/24 11:09:37;;;;;;;29.70;20.70;;;10.60;86.00;;;;;;5010416;28;20552;-64
2023/10/24 11:12:27;;;;;;;27.45;20.85;;;10.60;86.00;;;;;;5025691;28;20703;-64
2023/10/24 11:15:14;;;;;;;27.27;20.80;;;10.70;86.00;;;;;;5025233;28;20053;-64
2023/10/24 11:17:40;;;;;;;24.77;20.27;;;10.70;85.90;;;;;;5026562;28;20556;-65
2023/10/24 11:20:10;;;;;;;29.80;21.17;;;10.80;85.80;;;;;;5018185;28;20606;-65
2023/10/24 11:22:37;;;;;;;28.10;20.73;;;10.80;85.80;;;;;;5023336;28;20099;-64
2023/10/24 11:25:13;;;;;;;26.38;20.13;;;10.80;85.70;;;;;;5026521;28;20518;-64
2023/10/24 11:27:39;;;;;;;25.33;19.70;;;10.80;85.70;;;;;;5026907;28;20088;-64
2023/10/24 11:30:06;;;;;;;25.83;19.90;;;10.80;85.50;;;;;;5021561;28;20546;-64
2023/10/24 11:32:33;;;;;;;30.15;22.00;;;10.80;85.50;;;;;;5022813;28;20041;-64
2023/10/24 11:34:58;;;;;;;30.58;22.27;;;10.90;85.40;;;;;;5028169;28;20045;-65
2023/10/24 11:37:24;;;;;;;27.83;22.30;;;10.90;85.20;;;;;;5022805;28;20043;-64
2023/10/24 11:39:50;;;;;;;28.23;21.77;;;10.90;85.40;;;;;;5026475;28;20406;-64
2023/10/24 11:42:16;;;;;;;28.75;22.75;;;10.90;85.40;;;;;;5029186;28;20061;-64
2023/10/24 11:44:42;;;;;;;29.60;22.23;;;11.00;85.30;;;;;;5031890;28;20049;-64
2023/10/24 11:47:14;;;;;;;29.20;22.30;;;11.00;85.30;;;;;;5023837;28;20141;-64
2023/10/24 11:49:40;;;;;;;29.90;20.50;;;11.00;85.30;;;;;;5032460;28;20042;-64
2023/10/24 11:52:06;;;;;;;27.85;21.85;;;11.10;85.00;;;;;;5032623;28;20049;-64
2023/10/24 11:54:32;;;;;;;24.95;21.55;;;11.10;85.00;;;;;;5032392;28;20045;-64
2023/10/24 11:56:59;;;;;;;29.33;23.15;;;11.10;84.80;;;;;;5035095;28;20409;-64
2023/10/24 11:59:34;;;;;;;33.50;23.80;;;11.10;85.00;;;;;;5026515;28;20045;-64
2023/10/24 12:02:03;;;;;;;31.40;22.63;;;11.10;85.00;;;;;;5030282;28;20064;-64
2023/10/24 12:04:32;;;;;;;29.45;22.17;;;11.10;85.00;;;;;;5031172;28;20508;-64
2023/10/24 12:07:05;;;;;;;37.70;30.05;;;11.10;85.10;;;;;;5030100;28;20045;-64
2023/10/24 12:09:34;;;;;;;26.88;21.20;;;11.10;85.00;;;;;;5030133;28;20049;-64
2023/10/24 12:12:06;;;;;;;29.30;21.67;;;11.10;84.80;;;;;;5027874;28;20412;-64
2023/10/24 12:14:35;;;;;;;24.30;19.10;;;11.10;84.60;;;;;;5028905;28;20132;-64
2023/10/24 12:17:01;;;;;;;25.58;19.67;;;11.10;84.70;;;;;;5030958;28;20087;-64
2023/10/24 12:19:27;;;;;;;23.33;18.85;;;11.20;84.70;;;;;;5027044;28;20532;-64
2023/10/24 12:21:56;;;;;;;24.25;19.08;;;11.10;84.60;;;;;;5029679;28;20132;-64
2023/10/24 12:24:22;;;;;;;21.88;18.77;;;11.20;84.50;;;;;;5031924;28;20095;-64
2023/10/24 12:26:48;;;;;;;23.73;19.65;;;11.20;84.60;;;;;;5030037;28;20033;-64
2023/10/24 12:29:13;;;;;;;27.85;20.80;;;11.10;84.60;;;;;;5029156;28;20052;-64
2023/10/24 12:31:40;;;;;;;23.58;18.80;;;11.20;84.60;;;;;;5012911;28;20054;-64